sensor_id;sensor_type;location;lat;lon;timestamp;pressure;altitude;pressure_sealevel;temperature;humidity
22605;BME280;11469;49.024;8.246;2023-06-26T00:01:40;100218.47;;;18.72;85.90
22605;BME280;11469;49.024;8.246;2023-06-26T00:04:08;100222.09;;;18.76;86.20
22605;BME280;11469;49.024;8.246;2023-06-26T00:06:39;100221.19;;;18.86;85.99
22605;BME280;11469;49.024;8.246;2023-06-26T00:09:04;100217.84;;;18.92;84.94
22605;BME280;11469;49.024;8.246;2023-06-26T00:11:30;100227.16;;;18.92;84.35
22605;BME280;11469;49.024;8.246;2023-06-26T00:13:58;100231.69;;;18.89;84.22
22605;BME280;11469;49.024;8.246;2023-06-26T00:16:25;100230.09;;;18.88;84.13
22605;BME280;11469;49.024;8.246;2023-06-26T00:18:51;100225.25;;;18.85;84.11
22605;BME280;11469;49.024;8.246;2023-06-26T00:21:16;100225.63;;;18.87;83.95
22605;BME280;11469;49.024;8.246;2023-06-26T00:23:42;100230.97;;;18.82;84.32
22605;BME280;11469;49.024;8.246;2023-06-26T00:26:08;100230.97;;;18.82;84.51
22605;BME280;11469;49.024;8.246;2023-06-26T00:28:34;100220.84;;;18.81;84.51
22605;BME280;11469;49.024;8.246;2023-06-26T00:31:00;100229.34;;;18.81;84.51
22605;BME280;11469;49.024;8.246;2023-06-26T00:33:25;100231.38;;;18.80;84.45
22605;BME280;11469;49.024;8.246;2023-06-26T00:35:50;100231.84;;;18.75;84.29
22605;BME280;11469;49.024;8.246;2023-06-26T00:38:16;100231.03;;;18.75;84.53
22605;BME280;11469;49.024;8.246;2023-06-26T00:40:42;100227.38;;;18.74;84.58
22605;BME280;11469;49.024;8.246;2023-06-26T00:43:08;100233.13;;;18.67;85.13
22605;BME280;11469;49.024;8.246;2023-06-26T00:45:34;100230.38;;;18.60;85.48
22605;BME280;11469;49.024;8.246;2023-06-26T00:47:59;100242.56;;;18.53;85.83
22605;BME280;11469;49.024;8.246;2023-06-26T00:50:25;100234.91;;;18.47;85.87
22605;BME280;11469;49.024;8.246;2023-06-26T00:52:51;100238.16;;;18.45;85.64
22605;BME280;11469;49.024;8.246;2023-06-26T00:55:17;100230.97;;;18.37;85.65
22605;BME280;11469;49.024;8.246;2023-06-26T00:57:43;100234.25;;;18.32;85.88
22605;BME280;11469;49.024;8.246;2023-06-26T01:00:11;100237.13;;;18.29;86.08
22605;BME280;11469;49.024;8.246;2023-06-26T01:02:37;100229.06;;;18.23;86.26
22605;BME280;11469;49.024;8.246;2023-06-26T01:05:05;100227.00;;;18.28;86.43
22605;BME280;11469;49.024;8.246;2023-06-26T01:07:34;100222.50;;;18.34;86.13
22605;BME280;11469;49.024;8.246;2023-06-26T01:10:03;100228.63;;;18.25;85.91
22605;BME280;11469;49.024;8.246;2023-06-26T01:12:30;100229.91;;;18.17;85.95
22605;BME280;11469;49.024;8.246;2023-06-26T01:14:57;100217.78;;;18.13;86.38
22605;BME280;11469;49.024;8.246;2023-06-26T01:17:23;100219.47;;;18.07;86.91
22605;BME280;11469;49.024;8.246;2023-06-26T01:19:49;100221.53;;;18.03;87.45
22605;BME280;11469;49.024;8.246;2023-06-26T01:22:31;100226.50;;;17.92;87.91
22605;BME280;11469;49.024;8.246;2023-06-26T01:27:47;100220.03;;;17.87;88.12
22605;BME280;11469;49.024;8.246;2023-06-26T01:30:14;100228.13;;;17.89;88.24
22605;BME280;11469;49.024;8.246;2023-06-26T01:32:41;100215.63;;;17.83;88.57
22605;BME280;11469;49.024;8.246;2023-06-26T01:35:08;100227.00;;;17.72;89.46
22605;BME280;11469;49.024;8.246;2023-06-26T01:37:35;100224.19;;;17.69;89.40
22605;BME280;11469;49.024;8.246;2023-06-26T01:40:00;100217.31;;;17.70;89.48
22605;BME280;11469;49.024;8.246;2023-06-26T01:42:25;100218.94;;;17.67;89.88
22605;BME280;11469;49.024;8.246;2023-06-26T01:44:53;100209.63;;;17.70;90.02
22605;BME280;11469;49.024;8.246;2023-06-26T01:47:24;100216.06;;;17.74;90.04
22605;BME280;11469;49.024;8.246;2023-06-26T01:50:05;100212.03;;;17.72;90.30
22605;BME280;11469;49.024;8.246;2023-06-26T01:52:34;100214.88;;;17.68;90.23
22605;BME280;11469;49.024;8.246;2023-06-26T01:55:10;100213.69;;;17.66;90.64
22605;BME280;11469;49.024;8.246;2023-06-26T01:57:38;100208.03;;;17.66;90.70
22605;BME280;11469;49.024;8.246;2023-06-26T02:00:04;100223.00;;;17.63;90.84
22605;BME280;11469;49.024;8.246;2023-06-26T02:02:31;100212.47;;;17.63;91.18
22605;BME280;11469;49.024;8.246;2023-06-26T02:04:56;100215.28;;;17.63;91.38
22605;BME280;11469;49.024;8.246;2023-06-26T02:07:22;100210.84;;;17.62;91.46
22605;BME280;11469;49.024;8.246;2023-06-26T02:09:47;100208.81;;;17.63;91.50
22605;BME280;11469;49.024;8.246;2023-06-26T02:12:13;100213.66;;;17.69;90.99
22605;BME280;11469;49.024;8.246;2023-06-26T02:14:39;100220.19;;;17.55;91.08
22605;BME280;11469;49.024;8.246;2023-06-26T02:17:04;100214.25;;;17.36;91.63
22605;BME280;11469;49.024;8.246;2023-06-26T02:19:30;100209.41;;;17.29;92.26
22605;BME280;11469;49.024;8.246;2023-06-26T02:21:55;100201.78;;;17.15;93.08
22605;BME280;11469;49.024;8.246;2023-06-26T02:24:20;100201.03;;;17.04;93.90
22605;BME280;11469;49.024;8.246;2023-06-26T02:26:46;100203.09;;;17.00;94.79
22605;BME280;11469;49.024;8.246;2023-06-26T02:29:12;100199.88;;;16.98;95.16
22605;BME280;11469;49.024;8.246;2023-06-26T02:31:37;100200.66;;;16.99;95.62
22605;BME280;11469;49.024;8.246;2023-06-26T02:34:03;100202.69;;;16.98;95.58
22605;BME280;11469;49.024;8.246;2023-06-26T02:36:29;100207.13;;;16.99;95.61
22605;BME280;11469;49.024;8.246;2023-06-26T02:38:54;100201.88;;;16.98;95.88
22605;BME280;11469;49.024;8.246;2023-06-26T02:41:20;100206.28;;;17.02;95.63
22605;BME280;11469;49.024;8.246;2023-06-26T02:43:45;100213.94;;;17.09;95.64
22605;BME280;11469;49.024;8.246;2023-06-26T02:46:11;100207.06;;;17.13;95.27
22605;BME280;11469;49.024;8.246;2023-06-26T02:48:36;100210.28;;;17.15;95.34
22605;BME280;11469;49.024;8.246;2023-06-26T02:51:01;100219.59;;;17.12;95.51
22605;BME280;11469;49.024;8.246;2023-06-26T02:53:27;100208.31;;;17.05;95.64
22605;BME280;11469;49.024;8.246;2023-06-26T02:55:52;100215.19;;;17.04;95.88
22605;BME280;11469;49.024;8.246;2023-06-26T02:58:19;100206.28;;;17.02;95.76
22605;BME280;11469;49.024;8.246;2023-06-26T03:00:44;100218.47;;;16.96;96.60
22605;BME280;11469;49.024;8.246;2023-06-26T03:03:10;100207.97;;;16.96;96.87
22605;BME280;11469;49.024;8.246;2023-06-26T03:05:35;100210.81;;;16.92;97.27
22605;BME280;11469;49.024;8.246;2023-06-26T03:08:02;100207.97;;;16.89;97.26
22605;BME280;11469;49.024;8.246;2023-06-26T03:10:28;100208.78;;;16.89;97.16
22605;BME280;11469;49.024;8.246;2023-06-26T03:12:53;100212.00;;;16.91;97.14
22605;BME280;11469;49.024;8.246;2023-06-26T03:15:18;100210.38;;;16.98;97.07
22605;BME280;11469;49.024;8.246;2023-06-26T03:17:44;100214.81;;;16.99;97.28
22605;BME280;11469;49.024;8.246;2023-06-26T03:20:10;100214.38;;;17.04;97.08
22605;BME280;11469;49.024;8.246;2023-06-26T03:22:36;100221.25;;;17.03;96.87
22605;BME280;11469;49.024;8.246;2023-06-26T03:25:02;100215.63;;;16.99;96.78
22605;BME280;11469;49.024;8.246;2023-06-26T03:27:27;100210.78;;;16.96;96.94
22605;BME280;11469;49.024;8.246;2023-06-26T03:29:53;100211.19;;;16.95;97.07
22605;BME280;11469;49.024;8.246;2023-06-26T03:32:18;100212.41;;;16.97;97.25
22605;BME280;11469;49.024;8.246;2023-06-26T03:34:44;100212.41;;;16.97;97.09
22605;BME280;11469;49.024;8.246;2023-06-26T03:37:09;100218.47;;;16.92;97.76
22605;BME280;11469;49.024;8.246;2023-06-26T03:39:34;100210.81;;;16.89;98.07
22605;BME280;11469;49.024;8.246;2023-06-26T03:42:01;100221.72;;;16.90;98.13
22605;BME280;11469;49.024;8.246;2023-06-26T03:44:27;100229.78;;;16.96;98.17
22605;BME280;11469;49.024;8.246;2023-06-26T03:46:52;100230.22;;;16.90;98.29
22605;BME280;11469;49.024;8.246;2023-06-26T03:49:18;100233.03;;;16.90;98.36
22605;BME280;11469;49.024;8.246;2023-06-26T03:51:44;100222.13;;;16.92;98.17
22605;BME280;11469;49.024;8.246;2023-06-26T03:54:10;100219.28;;;16.96;98.38
22605;BME280;11469;49.024;8.246;2023-06-26T03:56:35;100231.41;;;17.00;98.37
22605;BME280;11469;49.024;8.246;2023-06-26T03:59:01;100235.38;;;17.10;98.24
22605;BME280;11469;49.024;8.246;2023-06-26T04:01:26;100243.81;;;17.28;98.04
22605;BME280;11469;49.024;8.246;2023-06-26T04:03:54;100244.13;;;17.47;97.38
22605;BME280;11469;49.024;8.246;2023-06-26T04:06:19;100240.78;;;17.70;96.79
22605;BME280;11469;49.024;8.246;2023-06-26T04:08:45;100235.81;;;17.92;95.21
22605;BME280;11469;49.024;8.246;2023-06-26T04:11:11;100233.16;;;18.15;93.49
22605;BME280;11469;49.024;8.246;2023-06-26T04:13:36;100228.97;;;18.34;91.66
22605;BME280;11469;49.024;8.246;2023-06-26T04:16:01;100237.28;;;18.55;90.84
22605;BME280;11469;49.024;8.246;2023-06-26T04:18:27;100233.44;;;18.76;89.32
22605;BME280;11469;49.024;8.246;2023-06-26T04:21:12;100239.66;;;19.02;87.81
22605;BME280;11469;49.024;8.246;2023-06-26T04:23:39;100236.59;;;19.19;86.45
22605;BME280;11469;49.024;8.246;2023-06-26T04:26:06;100241.63;;;19.39;84.70
22605;BME280;11469;49.024;8.246;2023-06-26T04:28:32;100241.00;;;19.58;83.69
22605;BME280;11469;49.024;8.246;2023-06-26T04:30:59;100239.09;;;19.78;82.92
22605;BME280;11469;49.024;8.246;2023-06-26T04:33:25;100236.34;;;19.98;82.38
22605;BME280;11469;49.024;8.246;2023-06-26T04:35:53;100235.63;;;20.17;80.82
22605;BME280;11469;49.024;8.246;2023-06-26T04:38:19;100243.94;;;20.32;79.64
22605;BME280;11469;49.024;8.246;2023-06-26T04:40:47;100240.78;;;20.49;78.99
22605;BME280;11469;49.024;8.246;2023-06-26T04:43:13;100242.59;;;20.63;77.72
22605;BME280;11469;49.024;8.246;2023-06-26T04:45:38;100245.19;;;20.77;76.64
22605;BME280;11469;49.024;8.246;2023-06-26T04:48:04;100245.75;;;20.88;75.91
22605;BME280;11469;49.024;8.246;2023-06-26T04:50:31;100252.72;;;21.07;74.78
22605;BME280;11469;49.024;8.246;2023-06-26T04:52:56;100250.47;;;21.18;74.61
22605;BME280;11469;49.024;8.246;2023-06-26T04:55:24;100257.22;;;21.28;74.53
22605;BME280;11469;49.024;8.246;2023-06-26T04:57:49;100251.16;;;21.26;74.36
22605;BME280;11469;49.024;8.246;2023-06-26T05:00:15;100242.44;;;21.33;75.09
22605;BME280;11469;49.024;8.246;2023-06-26T05:02:40;100241.78;;;21.45;74.74
22605;BME280;11469;49.024;8.246;2023-06-26T05:05:06;100242.22;;;21.44;74.42
22605;BME280;11469;49.024;8.246;2023-06-26T05:07:31;100238.22;;;21.41;74.12
22605;BME280;11469;49.024;8.246;2023-06-26T05:09:57;100235.34;;;21.41;74.54
22605;BME280;11469;49.024;8.246;2023-06-26T05:12:22;100239.00;;;21.42;74.31
22605;BME280;11469;49.024;8.246;2023-06-26T05:14:48;100239.66;;;21.49;74.25
22605;BME280;11469;49.024;8.246;2023-06-26T05:17:14;100234.09;;;21.62;74.54
22605;BME280;11469;49.024;8.246;2023-06-26T05:19:40;100240.81;;;21.72;74.77
22605;BME280;11469;49.024;8.246;2023-06-26T05:22:06;100233.94;;;21.85;74.16
22605;BME280;11469;49.024;8.246;2023-06-26T05:24:37;100247.69;;;21.91;74.48
22605;BME280;11469;49.024;8.246;2023-06-26T05:27:03;100233.56;;;22.03;73.72
22605;BME280;11469;49.024;8.246;2023-06-26T05:29:30;100245.91;;;22.16;73.87
22605;BME280;11469;49.024;8.246;2023-06-26T05:31:56;100248.47;;;22.27;73.76
22605;BME280;11469;49.024;8.246;2023-06-26T05:34:23;100249.38;;;22.40;73.36
22605;BME280;11469;49.024;8.246;2023-06-26T05:36:52;100242.84;;;22.56;73.00
22605;BME280;11469;49.024;8.246;2023-06-26T05:39:21;100252.19;;;22.73;72.70
22605;BME280;11469;49.024;8.246;2023-06-26T05:41:46;100249.41;;;22.86;71.66
22605;BME280;11469;49.024;8.246;2023-06-26T05:44:12;100251.72;;;23.07;70.74
22605;BME280;11469;49.024;8.246;2023-06-26T05:46:37;100249.31;;;23.47;69.40
22605;BME280;11469;49.024;8.246;2023-06-26T05:49:03;100250.97;;;23.61;67.52
22605;BME280;11469;49.024;8.246;2023-06-26T05:51:30;100246.88;;;23.87;67.43
22605;BME280;11469;49.024;8.246;2023-06-26T05:53:56;100254.06;;;24.17;65.36
22605;BME280;11469;49.024;8.246;2023-06-26T05:56:21;100241.97;;;24.26;63.43
22605;BME280;11469;49.024;8.246;2023-06-26T05:58:47;100240.25;;;24.28;63.27
22605;BME280;11469;49.024;8.246;2023-06-26T06:01:13;100261.44;;;24.31;62.74
22605;BME280;11469;49.024;8.246;2023-06-26T06:03:39;100261.06;;;24.54;62.01
22605;BME280;11469;49.024;8.246;2023-06-26T06:06:05;100256.31;;;24.73;60.57
22605;BME280;11469;49.024;8.246;2023-06-26T06:08:31;100267.44;;;24.71;60.28
22605;BME280;11469;49.024;8.246;2023-06-26T06:10:56;100266.25;;;24.81;60.14
22605;BME280;11469;49.024;8.246;2023-06-26T06:13:22;100262.09;;;24.95;59.19
22605;BME280;11469;49.024;8.246;2023-06-26T06:15:47;100262.25;;;25.13;58.83
22605;BME280;11469;49.024;8.246;2023-06-26T06:18:14;100258.75;;;25.31;58.03
22605;BME280;11469;49.024;8.246;2023-06-26T06:20:39;100263.63;;;25.43;57.64
22605;BME280;11469;49.024;8.246;2023-06-26T06:23:04;100257.78;;;25.56;56.83
22605;BME280;11469;49.024;8.246;2023-06-26T06:25:32;100254.78;;;25.59;56.18
22605;BME280;11469;49.024;8.246;2023-06-26T06:27:57;100260.03;;;25.52;56.17
22605;BME280;11469;49.024;8.246;2023-06-26T06:30:23;100262.69;;;25.68;56.09
22605;BME280;11469;49.024;8.246;2023-06-26T06:32:48;100262.53;;;25.93;56.02
22605;BME280;11469;49.024;8.246;2023-06-26T06:35:18;100258.88;;;26.02;55.17
22605;BME280;11469;49.024;8.246;2023-06-26T06:37:43;100269.88;;;26.03;54.76
22605;BME280;11469;49.024;8.246;2023-06-26T06:40:10;100273.81;;;26.28;54.11
22605;BME280;11469;49.024;8.246;2023-06-26T06:42:36;100265.75;;;26.35;54.58
22605;BME280;11469;49.024;8.246;2023-06-26T06:45:03;100269.13;;;26.43;53.54
22605;BME280;11469;49.024;8.246;2023-06-26T06:47:29;100262.25;;;26.50;53.76
22605;BME280;11469;49.024;8.246;2023-06-26T06:49:54;100273.50;;;26.75;53.39
22605;BME280;11469;49.024;8.246;2023-06-26T06:52:20;100268.09;;;26.77;53.44
22605;BME280;11469;49.024;8.246;2023-06-26T06:54:55;100266.19;;;26.92;52.34
22605;BME280;11469;49.024;8.246;2023-06-26T06:57:21;100264.28;;;27.07;51.50
22605;BME280;11469;49.024;8.246;2023-06-26T06:59:47;100273.56;;;27.12;51.47
22605;BME280;11469;49.024;8.246;2023-06-26T07:02:15;100270.03;;;27.17;51.43
22605;BME280;11469;49.024;8.246;2023-06-26T07:04:41;100266.84;;;27.24;51.16
22605;BME280;11469;49.024;8.246;2023-06-26T07:07:06;100270.50;;;27.52;51.27
22605;BME280;11469;49.024;8.246;2023-06-26T07:09:32;100263.47;;;27.53;50.89
22605;BME280;11469;49.024;8.246;2023-06-26T07:11:58;100260.44;;;27.65;49.98
22605;BME280;11469;49.024;8.246;2023-06-26T07:14:23;100256.25;;;27.48;50.25
22605;BME280;11469;49.024;8.246;2023-06-26T07:16:49;100254.19;;;27.58;49.42
22605;BME280;11469;49.024;8.246;2023-06-26T07:19:14;100259.00;;;27.61;50.57
22605;BME280;11469;49.024;8.246;2023-06-26T07:21:40;100255.81;;;27.59;49.03
22605;BME280;11469;49.024;8.246;2023-06-26T07:24:06;100262.50;;;27.65;49.22
22605;BME280;11469;49.024;8.246;2023-06-26T07:26:32;100257.38;;;27.69;48.12
22605;BME280;11469;49.024;8.246;2023-06-26T07:28:57;100246.66;;;27.79;48.33
22605;BME280;11469;49.024;8.246;2023-06-26T07:31:22;100260.59;;;27.71;48.08
22605;BME280;11469;49.024;8.246;2023-06-26T07:33:48;100260.56;;;27.80;47.99
22605;BME280;11469;49.024;8.246;2023-06-26T07:36:13;100252.88;;;27.86;48.59
22605;BME280;11469;49.024;8.246;2023-06-26T07:38:38;100253.38;;;27.75;48.57
22605;BME280;11469;49.024;8.246;2023-06-26T07:41:04;100260.72;;;27.58;48.54
22605;BME280;11469;49.024;8.246;2023-06-26T07:43:29;100258.34;;;27.57;49.14
22605;BME280;11469;49.024;8.246;2023-06-26T07:45:56;100271.28;;;27.80;48.91
22605;BME280;11469;49.024;8.246;2023-06-26T07:48:24;100265.72;;;27.67;49.02
22605;BME280;11469;49.024;8.246;2023-06-26T07:50:52;100261.19;;;27.84;48.47
22605;BME280;11469;49.024;8.246;2023-06-26T07:53:19;100258.53;;;28.04;49.21
22605;BME280;11469;49.024;8.246;2023-06-26T07:55:44;100267.16;;;28.14;48.39
22605;BME280;11469;49.024;8.246;2023-06-26T07:58:09;100255.97;;;28.06;48.53
22605;BME280;11469;49.024;8.246;2023-06-26T08:00:35;100267.63;;;28.21;48.19
22605;BME280;11469;49.024;8.246;2023-06-26T08:03:00;100261.84;;;28.30;47.99
22605;BME280;11469;49.024;8.246;2023-06-26T08:05:26;100266.31;;;28.31;47.84
22605;BME280;11469;49.024;8.246;2023-06-26T08:07:51;100268.88;;;28.29;47.85
22605;BME280;11469;49.024;8.246;2023-06-26T08:10:16;100283.63;;;28.13;48.26
22605;BME280;11469;49.024;8.246;2023-06-26T08:12:42;100281.56;;;28.23;48.19
22605;BME280;11469;49.024;8.246;2023-06-26T08:15:11;100285.13;;;27.90;48.48
22605;BME280;11469;49.024;8.246;2023-06-26T08:17:37;100287.78;;;27.70;49.64
22605;BME280;11469;49.024;8.246;2023-06-26T08:20:04;100289.88;;;28.12;49.07
22605;BME280;11469;49.024;8.246;2023-06-26T08:22:30;100296.63;;;27.99;49.32
22605;BME280;11469;49.024;8.246;2023-06-26T08:24:55;100301.34;;;27.88;50.15
22605;BME280;11469;49.024;8.246;2023-06-26T08:27:20;100303.22;;;27.91;50.66
22605;BME280;11469;49.024;8.246;2023-06-26T08:29:46;100296.53;;;27.85;49.97
22605;BME280;11469;49.024;8.246;2023-06-26T08:32:11;100290.38;;;28.10;49.88
22605;BME280;11469;49.024;8.246;2023-06-26T08:34:37;100298.19;;;28.28;49.50
22605;BME280;11469;49.024;8.246;2023-06-26T08:37:02;100291.72;;;28.66;48.83
22605;BME280;11469;49.024;8.246;2023-06-26T08:39:27;100291.75;;;28.90;48.24
22605;BME280;11469;49.024;8.246;2023-06-26T08:41:53;100291.22;;;29.00;47.65
22605;BME280;11469;49.024;8.246;2023-06-26T08:44:19;100302.38;;;28.84;47.48
22605;BME280;11469;49.024;8.246;2023-06-26T08:46:49;100294.69;;;28.81;47.80
22605;BME280;11469;49.024;8.246;2023-06-26T08:49:18;100313.03;;;28.35;48.02
22605;BME280;11469;49.024;8.246;2023-06-26T08:51:51;100302.47;;;28.32;48.41
22605;BME280;11469;49.024;8.246;2023-06-26T08:54:22;100310.03;;;28.12;49.34
22605;BME280;11469;49.024;8.246;2023-06-26T08:56:49;100310.69;;;28.25;49.48
22605;BME280;11469;49.024;8.246;2023-06-26T08:59:15;100315.53;;;28.42;49.49
22605;BME280;11469;49.024;8.246;2023-06-26T09:01:41;100318.75;;;28.45;49.27
22605;BME280;11469;49.024;8.246;2023-06-26T09:04:07;100317.00;;;28.38;49.71
22605;BME280;11469;49.024;8.246;2023-06-26T09:06:33;100330.44;;;28.41;49.54
22605;BME280;11469;49.024;8.246;2023-06-26T09:08:58;100320.75;;;28.29;49.57
22605;BME280;11469;49.024;8.246;2023-06-26T09:11:24;100317.38;;;28.31;49.96
22605;BME280;11469;49.024;8.246;2023-06-26T09:13:49;100322.38;;;28.21;50.57
22605;BME280;11469;49.024;8.246;2023-06-26T09:16:15;100328.63;;;28.11;50.48
22605;BME280;11469;49.024;8.246;2023-06-26T09:18:42;100332.81;;;27.91;51.58
22605;BME280;11469;49.024;8.246;2023-06-26T09:21:09;100331.13;;;27.66;52.18
22605;BME280;11469;49.024;8.246;2023-06-26T09:23:35;100327.59;;;27.71;52.81
22605;BME280;11469;49.024;8.246;2023-06-26T09:26:02;100335.75;;;27.73;52.77
22605;BME280;11469;49.024;8.246;2023-06-26T09:28:29;100335.53;;;27.95;52.79
22605;BME280;11469;49.024;8.246;2023-06-26T09:30:55;100332.59;;;28.31;52.03
22605;BME280;11469;49.024;8.246;2023-06-26T09:33:25;100336.78;;;28.54;52.51
22605;BME280;11469;49.024;8.246;2023-06-26T09:35:50;100336.97;;;28.84;50.52
22605;BME280;11469;49.024;8.246;2023-06-26T09:38:16;100335.56;;;29.03;48.03
22605;BME280;11469;49.024;8.246;2023-06-26T09:40:43;100348.91;;;29.24;48.12
22605;BME280;11469;49.024;8.246;2023-06-26T09:43:09;100344.53;;;29.29;47.77
22605;BME280;11469;49.024;8.246;2023-06-26T09:45:39;100336.38;;;29.27;47.05
22605;BME280;11469;49.024;8.246;2023-06-26T09:48:06;100338.78;;;29.29;47.87
22605;BME280;11469;49.024;8.246;2023-06-26T09:50:34;100342.63;;;29.26;47.70
22605;BME280;11469;49.024;8.246;2023-06-26T09:53:09;100341.34;;;29.27;47.73
22605;BME280;11469;49.024;8.246;2023-06-26T09:55:37;100332.06;;;29.47;48.00
22605;BME280;11469;49.024;8.246;2023-06-26T09:58:03;100338.97;;;29.64;46.99
22605;BME280;11469;49.024;8.246;2023-06-26T10:00:31;100329.31;;;29.82;46.83
22605;BME280;11469;49.024;8.246;2023-06-26T10:02:59;100324.19;;;30.00;45.89
22605;BME280;11469;49.024;8.246;2023-06-26T10:05:24;100321.88;;;29.75;46.28
22605;BME280;11469;49.024;8.246;2023-06-26T10:07:50;100313.28;;;29.81;46.11
22605;BME280;11469;49.024;8.246;2023-06-26T10:10:16;100323.84;;;29.84;45.75
22605;BME280;11469;49.024;8.246;2023-06-26T10:12:44;100320.56;;;29.91;45.94
22605;BME280;11469;49.024;8.246;2023-06-26T10:15:13;100316.56;;;29.88;45.98
22605;BME280;11469;49.024;8.246;2023-06-26T10:17:42;100324.53;;;29.93;45.21
22605;BME280;11469;49.024;8.246;2023-06-26T10:20:08;100327.16;;;30.21;45.31
22605;BME280;11469;49.024;8.246;2023-06-26T10:22:39;100334.31;;;30.25;44.56
22605;BME280;11469;49.024;8.246;2023-06-26T10:25:07;100327.91;;;30.36;44.47
22605;BME280;11469;49.024;8.246;2023-06-26T10:27:38;100332.97;;;30.56;44.41
22605;BME280;11469;49.024;8.246;2023-06-26T10:30:10;100334.00;;;30.38;43.60
22605;BME280;11469;49.024;8.246;2023-06-26T10:32:37;100325.38;;;30.23;44.70
22605;BME280;11469;49.024;8.246;2023-06-26T10:35:06;100334.75;;;30.03;44.82
22605;BME280;11469;49.024;8.246;2023-06-26T10:37:46;100329.91;;;30.30;45.29
22605;BME280;11469;49.024;8.246;2023-06-26T10:40:13;100336.06;;;30.67;44.04
22605;BME280;11469;49.024;8.246;2023-06-26T10:42:40;100329.84;;;30.74;44.02
22605;BME280;11469;49.024;8.246;2023-06-26T10:45:10;100331.03;;;30.82;43.55
22605;BME280;11469;49.024;8.246;2023-06-26T10:47:40;100342.94;;;31.05;43.15
22605;BME280;11469;49.024;8.246;2023-06-26T10:52:44;100339.69;;;30.62;43.53
22605;BME280;11469;49.024;8.246;2023-06-26T10:55:09;100342.00;;;30.78;42.77
22605;BME280;11469;49.024;8.246;2023-06-26T10:57:38;100336.72;;;30.77;42.83
22605;BME280;11469;49.024;8.246;2023-06-26T11:00:11;100342.47;;;30.91;42.44
22605;BME280;11469;49.024;8.246;2023-06-26T11:02:52;100346.97;;;30.92;41.88
22605;BME280;11469;49.024;8.246;2023-06-26T11:05:29;100345.09;;;30.75;41.53
22605;BME280;11469;49.024;8.246;2023-06-26T11:08:05;100349.13;;;30.97;41.40
22605;BME280;11469;49.024;8.246;2023-06-26T11:10:52;100351.84;;;31.21;41.03
22605;BME280;11469;49.024;8.246;2023-06-26T11:13:19;100349.75;;;31.22;40.54
22605;BME280;11469;49.024;8.246;2023-06-26T11:15:49;100348.66;;;31.40;39.71
22605;BME280;11469;49.024;8.246;2023-06-26T11:18:15;100352.06;;;31.58;39.43
22605;BME280;11469;49.024;8.246;2023-06-26T11:20:42;100334.16;;;31.60;39.51
22605;BME280;11469;49.024;8.246;2023-06-26T11:23:08;100348.50;;;31.49;39.30
22605;BME280;11469;49.024;8.246;2023-06-26T11:25:35;100349.09;;;31.53;39.43
22605;BME280;11469;49.024;8.246;2023-06-26T11:28:02;100342.19;;;30.89;39.62
22605;BME280;11469;49.024;8.246;2023-06-26T11:30:28;100339.78;;;30.67;39.89
22605;BME280;11469;49.024;8.246;2023-06-26T11:33:02;100334.19;;;30.64;40.66
22605;BME280;11469;49.024;8.246;2023-06-26T11:35:28;100333.06;;;30.96;40.25
22605;BME280;11469;49.024;8.246;2023-06-26T11:38:00;100348.09;;;31.15;40.13
22605;BME280;11469;49.024;8.246;2023-06-26T11:40:29;100348.69;;;31.19;38.24
22605;BME280;11469;49.024;8.246;2023-06-26T11:43:01;100349.44;;;30.99;38.63
22605;BME280;11469;49.024;8.246;2023-06-26T11:45:31;100357.59;;;31.01;38.59
22605;BME280;11469;49.024;8.246;2023-06-26T11:47:58;100352.06;;;30.83;38.23
22605;BME280;11469;49.024;8.246;2023-06-26T11:50:24;100359.22;;;30.67;38.65
22605;BME280;11469;49.024;8.246;2023-06-26T11:52:57;100352.13;;;30.53;38.92
22605;BME280;11469;49.024;8.246;2023-06-26T11:55:24;100359.94;;;30.82;38.48
22605;BME280;11469;49.024;8.246;2023-06-26T11:57:50;100361.97;;;30.76;37.94
22605;BME280;11469;49.024;8.246;2023-06-26T12:00:18;100372.38;;;30.53;37.83
22605;BME280;11469;49.024;8.246;2023-06-26T12:02:44;100367.00;;;30.46;38.54
22605;BME280;11469;49.024;8.246;2023-06-26T12:05:12;100363.59;;;30.48;37.95
22605;BME280;11469;49.024;8.246;2023-06-26T12:07:38;100374.28;;;30.42;37.76
22605;BME280;11469;49.024;8.246;2023-06-26T12:10:05;100358.16;;;30.20;37.88
22605;BME280;11469;49.024;8.246;2023-06-26T12:12:32;100362.16;;;30.23;37.98
22605;BME280;11469;49.024;8.246;2023-06-26T12:14:58;100365.59;;;30.42;37.61
22605;BME280;11469;49.024;8.246;2023-06-26T12:17:25;100371.97;;;30.31;37.19
22605;BME280;11469;49.024;8.246;2023-06-26T12:19:51;100355.44;;;30.31;37.30
22605;BME280;11469;49.024;8.246;2023-06-26T12:22:18;100359.13;;;30.47;37.43
22605;BME280;11469;49.024;8.246;2023-06-26T12:24:44;100369.78;;;30.70;36.24
22605;BME280;11469;49.024;8.246;2023-06-26T12:27:12;100371.81;;;30.84;36.88
22605;BME280;11469;49.024;8.246;2023-06-26T12:29:40;100367.88;;;31.02;36.58
22605;BME280;11469;49.024;8.246;2023-06-26T12:32:09;100369.22;;;31.21;36.44
22605;BME280;11469;49.024;8.246;2023-06-26T12:34:37;100359.78;;;31.06;36.11
22605;BME280;11469;49.024;8.246;2023-06-26T12:37:08;100365.56;;;31.06;36.84
22605;BME280;11469;49.024;8.246;2023-06-26T12:39:55;100350.66;;;30.93;35.98
22605;BME280;11469;49.024;8.246;2023-06-26T12:44:47;100356.19;;;31.31;35.85
22605;BME280;11469;49.024;8.246;2023-06-26T12:47:14;100354.88;;;31.53;35.95
22605;BME280;11469;49.024;8.246;2023-06-26T12:49:41;100360.03;;;31.43;35.65
22605;BME280;11469;49.024;8.246;2023-06-26T12:52:11;100360.44;;;31.56;35.38
22605;BME280;11469;49.024;8.246;2023-06-26T12:54:39;100358.66;;;31.59;35.01
22605;BME280;11469;49.024;8.246;2023-06-26T12:57:05;100343.66;;;31.40;35.00